createdAt,value
2018-04-12T00:00:20.142Z,37.70
2018-04-12T00:00:56.931Z,37.40
2018-04-12T00:01:56.934Z,34.50
2018-04-12T00:02:56.926Z,37.60
2018-04-12T00:07:21.055Z,34.90
2018-04-12T00:08:00.055Z,31.20
2018-04-12T00:10:33.309Z,33.40
2018-04-12T00:11:31.615Z,35.60
2018-04-12T00:12:31.609Z,34.10
2018-04-12T00:17:03.440Z,34.30
2018-04-12T00:17:34.738Z,33.20
2018-04-12T00:19:06.448Z,39.70
2018-04-12T00:19:34.727Z,43.80
2018-04-12T00:20:34.721Z,39.50
2018-04-12T00:21:34.903Z,38.60
2018-04-12T00:22:34.712Z,37.70
2018-04-12T00:23:39.936Z,38.20
2018-04-12T00:24:34.714Z,32.00
2018-04-12T00:25:34.713Z,33.70
2018-04-12T00:26:35.499Z,32.50
2018-04-12T00:27:34.712Z,36.60
2018-04-12T00:28:34.762Z,34.90
2018-04-12T00:29:34.701Z,36.00
2018-04-12T00:30:34.697Z,36.80
2018-04-12T00:31:34.692Z,42.50
2018-04-12T00:32:34.699Z,39.80
2018-04-12T00:33:45.442Z,41.00
2018-04-12T00:34:34.696Z,43.50
2018-04-12T00:35:34.691Z,43.80
2018-04-12T00:36:34.781Z,45.20
2018-04-12T00:37:34.684Z,43.00
2018-04-12T00:38:57.440Z,36.10
2018-04-12T00:39:34.680Z,33.80
2018-04-12T00:40:34.686Z,33.30
2018-04-12T00:41:34.672Z,32.40
2018-04-12T00:42:34.676Z,31.90
2018-04-12T00:45:45.430Z,35.60
2018-04-12T00:46:06.255Z,36.20
2018-04-12T00:47:06.262Z,34.20
2018-04-12T00:48:06.253Z,33.70
2018-04-12T00:49:20.430Z,32.20
2018-04-12T00:50:06.248Z,31.50
2018-04-12T00:51:06.241Z,31.90
2018-04-12T00:52:06.249Z,33.20
2018-04-12T00:53:06.237Z,37.00
2018-04-12T00:55:38.007Z,36.20
2018-04-12T00:56:37.870Z,32.90
2018-04-12T00:57:37.865Z,31.50
2018-04-12T00:58:37.864Z,31.00
2018-04-12T00:59:58.899Z,31.80
2018-04-12T01:00:37.853Z,33.60
2018-04-12T01:01:37.856Z,34.20
2018-04-12T01:02:37.852Z,32.20
2018-04-12T01:03:37.855Z,30.70
2018-04-12T01:04:49.440Z,30.40
2018-04-12T01:05:37.851Z,29.90
2018-04-12T01:06:37.847Z,39.20
2018-04-12T01:07:37.843Z,37.00
2018-04-12T01:08:37.841Z,36.00
2018-04-12T01:12:42.676Z,36.90
2018-04-12T01:13:40.958Z,32.70
2018-04-12T06:43:01.317Z,22.50
2018-04-12T06:44:06.318Z,22.50
2018-04-12T06:44:52.105Z,21.20
2018-04-12T06:45:52.106Z,22.20
2018-04-12T06:46:52.105Z,23.30
2018-04-12T06:47:52.102Z,24.70
2018-04-12T06:48:52.311Z,23.30
2018-04-12T06:49:52.102Z,22.10
2018-04-12T06:50:52.108Z,21.40
2018-04-12T06:51:52.115Z,19.70
2018-04-12T06:52:52.116Z,18.90
2018-04-12T06:57:02.985Z,17.50
2018-04-12T06:57:55.369Z,18.80
2018-04-12T06:59:16.415Z,17.10
2018-04-12T06:59:55.373Z,17.00
2018-04-12T07:00:55.380Z,17.40
2018-04-12T07:01:55.382Z,16.90
2018-04-12T07:02:55.377Z,16.00
2018-04-12T07:03:55.377Z,16.90
2018-04-12T07:04:58.485Z,15.90
2018-04-12T07:05:55.400Z,16.20
2018-04-12T07:06:55.394Z,16.80
2018-04-12T07:07:55.988Z,17.50
2018-04-12T07:08:55.398Z,18.30
2018-04-12T07:28:23.165Z,21.40
2018-04-12T07:29:15.661Z,21.60
2018-04-12T07:30:15.039Z,20.70
2018-04-12T07:31:15.041Z,21.30
2018-04-12T07:32:15.041Z,21.00
2018-04-12T07:33:15.054Z,20.90
2018-04-12T07:36:04.816Z,18.10
2018-04-12T07:36:46.636Z,18.30
2018-04-12T07:37:46.638Z,18.90
2018-04-12T07:38:46.638Z,18.90
2018-04-12T07:39:49.814Z,19.00
2018-04-12T07:40:46.648Z,18.10
2018-04-12T07:41:46.638Z,18.70
2018-04-12T07:42:46.639Z,17.80
2018-04-12T07:43:47.323Z,17.90
2018-04-12T07:44:47.556Z,17.90
2018-04-12T07:45:46.657Z,18.60
2018-04-12T07:46:46.647Z,19.00
2018-04-12T07:47:47.191Z,19.30
2018-04-12T07:50:57.420Z,17.70
2018-04-12T07:51:18.732Z,18.10
2018-04-12T07:52:18.279Z,19.80
2018-04-12T07:53:19.047Z,20.80
2018-04-12T07:54:18.923Z,19.40
2018-04-12T07:55:18.284Z,18.10
2018-04-12T07:56:18.289Z,18.20
2018-04-12T07:57:18.294Z,16.80
2018-04-12T07:58:18.915Z,16.40
2018-04-12T07:59:18.290Z,16.10
2018-04-12T08:00:18.520Z,16.00
2018-04-12T08:01:18.285Z,15.20
2018-04-12T08:02:18.315Z,15.70
2018-04-12T08:03:21.415Z,16.20
2018-04-12T08:04:19.193Z,14.70
2018-04-12T08:05:18.333Z,15.00
2018-04-12T08:06:18.601Z,15.00
2018-04-12T08:07:18.340Z,15.40
2018-04-12T08:09:50.628Z,14.60
2018-04-12T08:10:49.973Z,14.20
2018-04-12T08:11:50.014Z,15.10
2018-04-12T08:12:49.977Z,15.10
2018-04-12T08:15:49.430Z,15.60
2018-04-12T08:16:21.680Z,14.10
2018-04-12T08:17:21.667Z,14.50
2018-04-12T08:19:00.751Z,14.20
2018-04-12T08:19:21.665Z,13.90
2018-04-12T08:20:21.664Z,13.30
2018-04-12T08:21:21.677Z,13.40
2018-04-12T08:22:21.685Z,13.10
2018-04-12T08:23:35.788Z,16.20
2018-04-12T08:24:21.725Z,12.20
2018-04-12T08:25:21.740Z,12.60
2018-04-12T08:26:21.729Z,12.80
2018-04-12T08:27:21.754Z,12.70
2018-04-12T08:30:12.042Z,9.30
2018-04-12T08:30:53.382Z,9.10
2018-04-12T08:31:53.393Z,9.00
2018-04-12T08:33:11.526Z,9.00
2018-04-12T08:33:53.429Z,9.80
2018-04-12T08:34:53.422Z,8.90
2018-04-12T08:35:53.434Z,9.20
2018-04-12T08:36:53.441Z,9.20
2018-04-12T08:38:15.039Z,9.20
2018-04-12T08:38:53.472Z,8.90
2018-04-12T08:39:53.512Z,9.10
2018-04-12T08:40:53.499Z,8.10
2018-04-12T08:41:53.506Z,8.30
2018-04-12T08:43:12.037Z,7.90
2018-04-12T08:43:53.549Z,8.30
2018-04-12T08:44:53.538Z,8.70
2018-04-12T08:45:53.566Z,8.20
2018-04-12T08:46:53.557Z,8.00
2018-04-12T08:47:53.872Z,7.90
2018-04-12T08:48:53.588Z,7.50
2018-04-12T08:49:53.626Z,7.70
2018-04-12T08:50:53.696Z,7.30
2018-04-12T08:51:53.623Z,6.90
2018-04-12T08:52:53.633Z,6.60
2018-04-12T08:53:54.735Z,6.50
2018-04-12T08:54:54.432Z,6.30
2018-04-12T08:55:54.919Z,6.30
2018-04-12T08:56:54.252Z,6.20
2018-04-12T08:57:53.696Z,5.40
2018-04-12T08:58:54.635Z,5.80
2018-04-12T08:59:53.725Z,5.90
2018-04-12T09:00:53.830Z,5.60
2018-04-12T09:01:53.792Z,5.50
2018-04-12T09:02:53.762Z,5.70
2018-04-12T09:03:53.808Z,5.10
2018-04-12T09:04:53.791Z,5.00
2018-04-12T09:05:54.516Z,4.90
2018-04-12T09:06:53.824Z,5.10
2018-04-12T09:07:53.820Z,5.10
2018-04-12T09:08:53.905Z,5.30
2018-04-12T09:09:53.848Z,5.90
2018-04-12T09:10:53.867Z,5.80
2018-04-12T09:11:53.870Z,6.00
2018-04-12T09:12:53.891Z,6.30
2018-04-12T09:13:53.945Z,6.00
2018-04-12T09:14:53.949Z,5.70
2018-04-12T09:15:53.984Z,6.00
2018-04-12T09:16:53.941Z,5.90
2018-04-12T09:17:54.006Z,5.70
2018-04-12T09:18:54.054Z,6.00
2018-04-12T09:19:53.975Z,5.90
2018-04-12T09:20:53.994Z,5.90
2018-04-12T09:21:54.013Z,5.70
2018-04-12T09:22:54.053Z,5.30
2018-04-12T09:23:54.067Z,5.70
2018-04-12T09:24:54.059Z,5.80
2018-04-12T09:25:54.067Z,6.20
2018-04-12T09:26:54.079Z,5.80
2018-04-12T09:27:54.094Z,5.50
2018-04-12T09:28:54.163Z,6.00
2018-04-12T09:29:54.215Z,5.70
2018-04-12T09:30:54.139Z,5.70
2018-04-12T09:31:54.147Z,5.80
2018-04-12T09:32:54.163Z,5.70
2018-04-12T09:35:33.959Z,5.20
2018-04-12T09:36:26.309Z,6.20
2018-04-12T09:37:26.321Z,6.00
2018-04-12T09:38:26.337Z,5.80
2018-04-12T09:39:44.441Z,5.90
2018-04-12T09:40:26.366Z,5.80
2018-04-12T09:41:26.378Z,5.90
2018-04-12T09:42:26.408Z,5.70
2018-04-12T09:43:26.410Z,6.20
2018-04-12T09:44:31.469Z,5.70
2018-04-12T09:45:26.523Z,6.30
2018-04-12T09:46:26.454Z,5.50
2018-04-12T09:47:26.462Z,5.00
2018-04-12T09:48:27.202Z,5.30
2018-04-12T09:51:20.374Z,4.70
2018-04-12T09:51:58.189Z,3.70
2018-04-12T09:52:58.178Z,4.00
2018-04-12T09:53:58.194Z,4.10
2018-04-12T09:54:58.257Z,3.50
2018-04-12T09:55:58.217Z,4.10
2018-04-12T09:56:58.248Z,4.00
2018-04-12T09:57:58.246Z,4.30
2018-04-12T09:58:58.266Z,4.30
2018-04-12T10:00:20.287Z,3.90
2018-04-12T10:00:58.299Z,3.60
2018-04-12T10:01:58.306Z,4.30
2018-04-12T10:02:58.334Z,4.50
2018-04-12T10:04:01.563Z,3.90
2018-04-12T10:04:58.453Z,3.50
2018-04-12T10:05:58.377Z,4.00
2018-04-12T10:06:58.394Z,4.50
2018-04-12T10:07:58.414Z,4.70
2018-04-12T10:08:58.515Z,4.40
2018-04-12T10:09:58.476Z,3.90
2018-04-12T10:10:58.496Z,4.10
2018-04-12T10:11:58.469Z,4.00
2018-04-12T10:12:58.476Z,3.90
2018-04-12T10:13:58.500Z,3.70
2018-04-12T10:14:59.388Z,4.20
2018-04-12T10:15:58.528Z,4.20
2018-04-12T10:16:58.549Z,4.00
2018-04-12T10:17:59.345Z,3.50
2018-04-12T10:18:58.585Z,4.10
2018-04-12T10:19:58.638Z,4.30
2018-04-12T10:20:58.600Z,4.10
2018-04-12T10:21:58.614Z,3.90
2018-04-12T10:22:58.635Z,3.70
2018-04-12T10:23:58.649Z,3.70
2018-04-12T10:25:09.285Z,4.10
2018-04-12T10:25:58.682Z,4.30
2018-04-12T10:26:58.701Z,4.30
2018-04-12T10:27:58.719Z,3.80
2018-04-12T10:28:58.741Z,3.80
2018-04-12T10:29:59.291Z,3.90
2018-04-12T10:30:59.758Z,3.60
2018-04-12T10:31:59.130Z,3.80
2018-04-12T10:32:58.795Z,4.00
2018-04-12T10:33:58.819Z,4.10
2018-04-12T10:34:59.719Z,4.00
2018-04-12T10:35:58.848Z,3.70
2018-04-12T10:36:58.863Z,3.80
2018-04-12T10:37:58.875Z,3.80
2018-04-12T10:38:58.900Z,4.30
2018-04-12T10:39:59.239Z,4.00
2018-04-12T10:40:58.936Z,4.00
2018-04-12T10:41:58.949Z,3.80
2018-04-12T10:42:58.968Z,3.80
2018-04-12T10:43:58.985Z,3.90
2018-04-12T10:44:59.000Z,3.20
2018-04-12T10:46:13.311Z,3.30
2018-04-12T10:46:59.036Z,3.80
2018-04-12T10:47:59.047Z,3.60
2018-04-12T10:48:59.076Z,3.70
2018-04-12T10:49:59.525Z,3.30
2018-04-12T10:50:59.140Z,3.70
2018-04-12T10:51:59.140Z,2.90
2018-04-12T10:52:59.129Z,3.30
2018-04-12T10:53:59.153Z,3.40
2018-04-12T10:54:59.232Z,3.00
2018-04-12T10:55:59.741Z,3.60
2018-04-12T10:56:59.206Z,3.00
2018-04-12T10:57:59.223Z,3.10
2018-04-12T10:58:59.242Z,3.30
2018-04-12T10:59:59.316Z,3.40
2018-04-12T11:00:59.280Z,3.10
2018-04-12T11:01:59.290Z,2.90
2018-04-12T11:02:59.310Z,3.20
2018-04-12T11:03:59.327Z,3.20
2018-04-12T11:04:59.410Z,3.30
2018-04-12T11:05:59.360Z,3.50
2018-04-12T11:06:59.371Z,3.10
2018-04-12T11:07:59.391Z,3.30
2018-04-12T11:08:59.414Z,3.00
2018-04-12T11:09:59.471Z,3.10
2018-04-12T11:10:59.445Z,3.10
2018-04-12T11:11:59.456Z,3.40
2018-04-12T11:12:59.482Z,2.80
2018-04-12T11:13:59.485Z,3.40
2018-04-12T11:14:59.654Z,3.90
2018-04-12T11:15:59.563Z,3.20
2018-04-12T11:16:59.541Z,3.10
2018-04-12T11:17:59.555Z,3.00
2018-04-12T11:18:59.575Z,3.50
2018-04-12T11:19:59.844Z,3.10
2018-04-12T11:20:59.636Z,3.00
2018-04-12T11:21:59.637Z,2.90
2018-04-12T11:22:59.632Z,2.70
2018-04-12T11:23:59.649Z,3.20
2018-04-12T11:24:59.704Z,2.50
2018-04-12T11:25:59.692Z,3.20
2018-04-12T11:27:00.256Z,3.10
2018-04-12T11:27:59.715Z,3.10
2018-04-12T11:28:59.721Z,3.40
2018-04-12T11:30:00.382Z,2.70
2018-04-12T11:30:59.753Z,2.90
2018-04-12T11:31:59.763Z,2.90
2018-04-12T11:32:59.777Z,3.10
2018-04-12T11:34:05.342Z,2.80
2018-04-12T11:34:59.806Z,2.70
2018-04-12T11:35:59.812Z,2.50
2018-04-12T11:36:59.847Z,2.80
2018-04-12T11:37:59.838Z,3.00
2018-04-12T11:38:59.882Z,2.10
2018-04-12T11:39:59.862Z,3.00
2018-04-12T11:40:59.875Z,2.90
2018-04-12T11:41:59.882Z,3.00
2018-04-12T11:42:59.891Z,3.20
2018-04-12T11:43:59.954Z,2.80
2018-04-12T11:44:59.911Z,3.00
2018-04-12T11:45:59.927Z,3.00
2018-04-12T11:46:59.993Z,3.30
2018-04-12T11:47:59.964Z,3.10
2018-04-12T11:49:00.394Z,2.80
2018-04-12T11:50:00.017Z,2.60
2018-04-12T11:50:59.999Z,2.40
2018-04-12T11:52:00.009Z,2.90
2018-04-12T11:53:00.022Z,2.50
2018-04-12T11:54:24.353Z,2.10
2018-04-12T11:55:00.049Z,2.40
2018-04-12T11:56:00.091Z,2.30
2018-04-12T11:57:00.065Z,2.60
2018-04-12T11:58:00.079Z,1.90
2018-04-12T11:59:00.083Z,2.00
2018-04-12T12:00:00.135Z,2.20
2018-04-12T12:01:00.109Z,2.60
2018-04-12T12:02:00.123Z,2.20
2018-04-12T12:03:00.134Z,2.10
2018-04-12T12:04:00.147Z,2.00
2018-04-12T12:05:00.208Z,2.20
2018-04-12T12:06:00.171Z,2.30
2018-04-12T12:07:00.285Z,2.20
2018-04-12T12:08:00.203Z,2.10
2018-04-12T12:09:00.219Z,2.10
2018-04-12T12:10:00.279Z,1.90
2018-04-12T12:11:00.248Z,2.40
2018-04-12T12:12:00.366Z,2.20
2018-04-12T12:13:00.275Z,2.00
2018-04-12T12:14:00.331Z,2.30
2018-04-12T12:15:00.304Z,2.20
2018-04-12T12:16:00.320Z,2.10
2018-04-12T12:17:00.336Z,2.30
2018-04-12T12:18:00.361Z,2.00
2018-04-12T12:19:00.852Z,2.30
2018-04-12T12:20:00.373Z,2.30
2018-04-12T12:21:00.396Z,2.30
2018-04-12T12:22:00.413Z,2.10
2018-04-12T12:23:00.421Z,2.20
2018-04-12T12:24:00.438Z,2.30
2018-04-12T12:25:00.507Z,3.30
2018-04-12T12:26:00.466Z,2.20
2018-04-12T12:27:00.482Z,2.30
2018-04-12T12:28:00.498Z,1.90
2018-04-12T12:29:00.651Z,2.00
2018-04-12T12:30:00.532Z,1.80
2018-04-12T12:31:00.540Z,2.00
2018-04-12T12:32:00.556Z,2.10
2018-04-12T12:33:00.571Z,2.20
2018-04-12T12:34:00.899Z,1.70
2018-04-12T12:35:00.599Z,1.80
2018-04-12T12:36:00.616Z,1.80
2018-04-12T12:37:00.625Z,1.80
2018-04-12T12:38:00.648Z,1.80
2018-04-12T12:39:00.697Z,1.70
2018-04-12T12:40:00.680Z,1.90
2018-04-12T12:41:00.692Z,1.80
2018-04-12T12:42:00.710Z,1.70
2018-04-12T12:43:00.726Z,1.80
2018-04-12T12:44:00.777Z,1.90
2018-04-12T12:45:00.760Z,1.80
2018-04-12T12:46:01.349Z,1.80
2018-04-12T12:47:00.836Z,2.10
2018-04-12T12:48:00.807Z,2.00
2018-04-12T12:49:00.869Z,2.20
2018-04-12T12:50:00.837Z,2.00
2018-04-12T12:51:00.867Z,1.90
2018-04-12T12:52:00.878Z,2.10
2018-04-12T12:53:00.884Z,2.00
2018-04-12T12:54:02.859Z,1.90
2018-04-12T12:55:00.917Z,2.10
2018-04-12T12:56:01.010Z,2.00
2018-04-12T12:57:00.954Z,2.10
2018-04-12T12:58:00.966Z,2.00
2018-04-12T12:59:01.366Z,2.10
2018-04-12T13:00:01.005Z,2.20
2018-04-12T13:01:01.022Z,2.10
2018-04-12T13:02:01.033Z,2.20
2018-04-12T13:03:01.074Z,2.10
2018-04-12T13:04:01.144Z,2.10
2018-04-12T13:05:01.074Z,2.10
2018-04-12T13:06:01.093Z,2.00
2018-04-12T13:07:01.186Z,2.00
2018-04-12T13:08:01.122Z,2.10
2018-04-12T13:09:01.382Z,2.00
2018-04-12T13:10:01.876Z,2.00
2018-04-12T13:11:01.173Z,2.10
2018-04-12T13:12:01.189Z,2.30
2018-04-12T13:13:01.207Z,2.50
2018-04-12T13:14:01.278Z,2.50
2018-04-12T13:15:01.823Z,2.20
2018-04-12T13:16:01.242Z,2.20
2018-04-12T13:17:01.264Z,2.10
2018-04-12T13:18:01.275Z,2.30
2018-04-12T13:19:01.947Z,2.30
2018-04-12T13:20:01.290Z,2.40
2018-04-12T13:21:01.318Z,2.30
2018-04-12T13:22:01.319Z,2.30
2018-04-12T13:23:01.336Z,2.40
2018-04-12T13:24:01.365Z,2.20
2018-04-12T13:25:01.922Z,2.30
2018-04-12T13:26:01.385Z,2.20
2018-04-12T13:27:01.401Z,2.50
2018-04-12T13:28:01.396Z,2.10
2018-04-12T13:29:01.412Z,2.00
2018-04-12T13:30:01.612Z,2.00
2018-04-12T13:31:01.452Z,2.10
2018-04-12T13:32:01.466Z,2.90
2018-04-12T13:33:02.387Z,2.20
2018-04-12T13:34:01.487Z,2.30
2018-04-12T13:35:03.372Z,2.50
2018-04-12T13:36:01.514Z,2.60
2018-04-12T13:37:01.523Z,2.40
2018-04-12T13:38:01.538Z,2.50
2018-04-12T13:39:01.554Z,2.20
2018-04-12T13:40:01.614Z,2.30
2018-04-12T13:41:01.586Z,2.50
2018-04-12T13:42:01.640Z,2.50
2018-04-12T13:43:01.622Z,2.70
2018-04-12T13:44:01.633Z,2.70
2018-04-12T13:45:03.404Z,2.60
2018-04-12T13:46:01.658Z,2.40
2018-04-12T13:47:01.671Z,2.40
2018-04-12T13:48:01.700Z,2.40
2018-04-12T13:49:01.706Z,2.40
2018-04-12T13:50:01.845Z,2.30
2018-04-12T13:51:01.732Z,2.40
2018-04-12T13:52:01.746Z,2.20
2018-04-12T13:53:01.757Z,2.40
2018-04-12T13:54:09.443Z,2.50
2018-04-12T13:55:01.815Z,2.70
2018-04-12T13:56:01.792Z,2.30
2018-04-12T13:57:01.809Z,1.90
2018-04-12T13:58:01.815Z,2.50
2018-04-12T13:59:01.913Z,2.30
2018-04-12T14:00:01.857Z,2.50
2018-04-12T14:01:01.846Z,2.30
2018-04-12T14:02:01.860Z,2.10
2018-04-12T14:03:01.877Z,2.50
2018-04-12T14:04:13.138Z,2.10
2018-04-12T14:05:01.893Z,2.30
2018-04-12T14:06:01.925Z,2.10
2018-04-12T14:07:01.917Z,2.20
2018-04-12T14:08:01.926Z,2.70
2018-04-12T14:09:01.934Z,2.10
2018-04-12T14:10:07.427Z,2.10
2018-04-12T14:11:01.959Z,1.70
2018-04-12T14:12:01.966Z,2.20
2018-04-12T14:13:01.975Z,1.90
2018-04-12T14:14:01.987Z,2.20
2018-04-12T14:15:13.100Z,1.90
2018-04-12T14:16:02.000Z,2.20
2018-04-12T14:17:02.019Z,2.00
2018-04-12T14:18:02.019Z,2.20
2018-04-12T14:19:02.039Z,2.10
2018-04-12T14:20:02.390Z,1.90
2018-04-12T14:21:02.608Z,2.00
2018-04-12T14:22:02.060Z,2.00
2018-04-12T14:23:02.075Z,1.70
2018-04-12T14:24:02.102Z,1.90
2018-04-12T14:25:07.938Z,1.80
2018-04-12T14:26:02.108Z,1.90
2018-04-12T14:27:02.122Z,2.10
2018-04-12T14:28:02.128Z,2.20
2018-04-12T14:29:02.140Z,2.10
2018-04-12T14:30:02.211Z,1.70
2018-04-12T14:31:02.167Z,1.80
2018-04-12T14:32:02.173Z,1.70
2018-04-12T14:33:02.179Z,2.00
2018-04-12T14:34:02.189Z,2.10
2018-04-12T14:35:02.253Z,1.90
2018-04-12T14:36:02.224Z,2.00
2018-04-12T14:37:02.236Z,1.80
2018-04-12T14:38:02.229Z,1.50
2018-04-12T14:39:02.245Z,1.60
2018-04-12T14:40:02.301Z,2.20
2018-04-12T14:41:02.273Z,1.70
2018-04-12T14:42:02.286Z,4.10
2018-04-12T14:43:02.290Z,3.20
2018-04-12T14:44:02.317Z,1.90
2018-04-12T14:45:03.373Z,1.50
2018-04-12T14:46:02.331Z,1.50
2018-04-12T14:47:02.346Z,1.80
2018-04-12T14:48:02.362Z,1.70
2018-04-12T14:49:02.387Z,2.10
2018-04-12T14:50:02.431Z,1.90
2018-04-12T14:51:02.388Z,1.60
2018-04-12T14:52:02.406Z,1.90
2018-04-12T14:53:02.418Z,1.60
2018-04-12T14:54:02.427Z,1.80
2018-04-12T14:55:02.477Z,1.70
2018-04-12T14:56:02.456Z,1.90
2018-04-12T14:57:02.477Z,1.90
2018-04-12T14:58:02.481Z,1.90
2018-04-12T14:59:02.497Z,1.70
2018-04-12T15:00:02.538Z,1.40
2018-04-12T15:01:02.555Z,1.30
2018-04-12T15:02:02.531Z,1.70
2018-04-12T15:03:02.539Z,1.60
2018-04-12T15:04:02.553Z,1.40
2018-04-12T15:05:16.899Z,1.40
2018-04-12T15:06:02.582Z,1.50
2018-04-12T15:07:02.592Z,1.50
2018-04-12T15:08:02.616Z,1.90
2018-04-12T15:09:02.618Z,1.60
2018-04-12T15:10:02.675Z,1.40
2018-04-12T15:11:02.646Z,1.90
2018-04-12T15:12:02.652Z,1.70
2018-04-12T15:13:02.683Z,1.60
2018-04-12T15:14:02.669Z,1.50
2018-04-12T15:15:05.999Z,1.70
2018-04-12T15:16:02.734Z,1.60
2018-04-12T15:17:02.712Z,1.70
2018-04-12T15:18:02.715Z,1.80
2018-04-12T15:19:02.727Z,1.70
2018-04-12T15:20:02.777Z,1.60
2018-04-12T15:21:02.748Z,1.90
2018-04-12T15:22:02.760Z,1.70
2018-04-12T15:23:02.772Z,2.60
2018-04-12T15:24:02.785Z,1.80
2018-04-12T15:25:02.851Z,1.80
2018-04-12T15:26:02.800Z,1.70
2018-04-12T15:27:02.812Z,1.80
2018-04-12T15:28:02.824Z,2.00
2018-04-12T15:29:02.838Z,3.00
2018-04-12T15:30:03.462Z,3.10
2018-04-12T15:31:02.854Z,2.10
2018-04-12T15:32:02.887Z,10.00
2018-04-12T15:33:02.874Z,1.90
2018-04-12T15:34:02.885Z,2.90
2018-04-12T15:35:03.137Z,2.00
2018-04-12T15:36:02.905Z,2.20
2018-04-12T15:37:02.924Z,2.00
2018-04-12T15:38:02.931Z,2.80
2018-04-12T15:39:02.933Z,2.30
2018-04-12T15:40:02.951Z,1.80
2018-04-12T15:41:03.007Z,2.10
2018-04-12T15:42:03.365Z,1.80
2018-04-12T15:43:02.991Z,1.80
2018-04-12T15:44:02.988Z,1.60
2018-04-12T15:45:03.004Z,2.10
2018-04-12T15:46:03.542Z,2.00
2018-04-12T15:47:03.018Z,1.70
2018-04-12T15:48:03.029Z,1.80
2018-04-12T15:49:03.036Z,1.90
2018-04-12T15:50:03.041Z,1.80
2018-04-12T15:51:03.169Z,1.60
2018-04-12T15:52:31.934Z,2.00
2018-04-12T15:53:03.081Z,1.90
2018-04-12T15:54:03.085Z,1.70
2018-04-12T15:55:03.139Z,2.30
2018-04-12T15:56:03.424Z,2.60
2018-04-12T15:57:03.113Z,1.80
2018-04-12T15:58:03.130Z,1.60
2018-04-12T15:59:03.139Z,2.10
2018-04-12T16:00:03.142Z,1.80
2018-04-12T16:01:24.524Z,1.90
2018-04-12T16:02:03.159Z,1.60
2018-04-12T16:03:03.166Z,2.20
2018-04-12T16:04:03.192Z,3.70
2018-04-12T16:05:03.191Z,3.00
2018-04-12T16:06:03.208Z,3.20
2018-04-12T16:07:10.931Z,1.80
2018-04-12T16:08:03.224Z,1.80
2018-04-12T16:09:03.235Z,2.00
2018-04-12T16:10:03.244Z,1.90
2018-04-12T16:11:03.248Z,1.90
2018-04-12T16:12:04.133Z,1.70
2018-04-12T16:13:03.268Z,1.90
2018-04-12T16:14:03.273Z,1.80
2018-04-12T16:15:03.285Z,1.80
2018-04-12T16:16:03.337Z,1.80
2018-04-12T16:17:03.303Z,1.90
2018-04-12T16:18:03.315Z,2.00
2018-04-12T16:19:03.321Z,1.90
2018-04-12T16:20:03.344Z,2.20
2018-04-12T16:21:03.370Z,2.30
2018-04-12T16:22:03.350Z,2.10
2018-04-12T16:23:03.350Z,2.80
2018-04-12T16:24:03.364Z,2.20
2018-04-12T16:25:03.375Z,2.10
2018-04-12T16:26:03.431Z,2.10
2018-04-12T16:27:03.578Z,1.90
2018-04-12T16:28:04.017Z,2.20
2018-04-12T16:29:03.413Z,2.30
2018-04-12T16:30:04.376Z,2.10
2018-04-12T16:31:03.472Z,1.70
2018-04-12T16:32:03.434Z,2.00
2018-04-12T16:33:03.438Z,2.40
2018-04-12T16:34:03.442Z,2.60
2018-04-12T16:35:03.453Z,2.30
2018-04-12T16:36:03.525Z,4.90
2018-04-12T16:37:03.476Z,2.90
2018-04-12T16:38:03.485Z,2.30
2018-04-12T16:39:03.490Z,2.30
2018-04-12T16:40:03.498Z,2.80
2018-04-12T16:41:03.578Z,2.40
2018-04-12T16:42:03.508Z,2.40
2018-04-12T16:43:03.518Z,2.10
2018-04-12T16:44:04.378Z,1.90
2018-04-12T16:45:03.533Z,2.10
2018-04-12T16:46:03.546Z,2.00
2018-04-12T16:47:11.444Z,3.70
2018-04-12T16:48:03.549Z,3.60
2018-04-12T16:49:03.558Z,4.10
2018-04-12T16:50:03.567Z,4.30
2018-04-12T16:51:03.601Z,5.00
2018-04-12T16:52:05.443Z,4.80
2018-04-12T16:53:05.859Z,3.00
2018-04-12T16:54:03.602Z,2.90
2018-04-12T16:55:03.597Z,2.20
2018-04-12T16:56:03.625Z,2.30
2018-04-12T16:57:03.934Z,2.10
2018-04-12T16:58:03.616Z,1.90
2018-04-12T16:59:03.620Z,1.90
2018-04-12T17:00:03.633Z,2.20
2018-04-12T17:01:03.637Z,2.40
2018-04-12T17:02:03.966Z,2.10
2018-04-12T17:03:03.655Z,1.80
2018-04-12T17:04:03.769Z,2.30
2018-04-12T17:05:03.663Z,2.20
2018-04-12T17:06:03.667Z,2.10
2018-04-12T17:07:03.750Z,2.70
2018-04-12T17:08:03.682Z,2.00
2018-04-12T17:09:03.693Z,2.20
2018-04-12T17:10:03.692Z,2.30
2018-04-12T17:11:03.701Z,2.20
2018-04-12T17:12:04.572Z,1.90
2018-04-12T17:13:03.714Z,2.30
2018-04-12T17:14:03.720Z,5.30
2018-04-12T17:15:03.724Z,3.30
2018-04-12T17:16:03.729Z,4.20
2018-04-12T17:17:03.944Z,5.00
2018-04-12T17:18:03.744Z,4.60
2018-04-12T17:19:03.748Z,3.30
2018-04-12T17:20:03.752Z,2.40
2018-04-12T17:21:03.760Z,2.40
2018-04-12T17:23:41.565Z,2.90
2018-04-12T17:25:39.549Z,2.50
2018-04-12T17:26:40.049Z,2.60
2018-04-12T17:27:39.170Z,2.10
2018-04-12T17:28:38.019Z,3.80
2018-04-12T17:29:41.053Z,5.00
2018-04-12T17:30:36.728Z,5.80
2018-04-12T17:31:38.951Z,4.80
2018-04-12T17:32:42.613Z,2.70
2018-04-12T17:33:38.760Z,3.40
2018-04-12T17:34:38.054Z,4.50
2018-04-12T17:35:39.215Z,6.50
2018-04-12T17:36:40.638Z,10.20
2018-04-12T17:37:40.085Z,10.50
2018-04-12T17:38:39.131Z,6.50
2018-04-12T17:39:39.876Z,2.70
2018-04-12T17:40:37.454Z,2.70
2018-04-12T17:41:36.478Z,3.40
2018-04-12T17:47:16.145Z,84.70
2018-04-12T17:48:13.466Z,141.60
2018-04-12T17:49:13.492Z,66.20
2018-04-12T17:50:13.464Z,33.30
2018-04-12T17:51:13.468Z,19.30
2018-04-12T17:52:27.627Z,19.90
2018-04-12T17:53:13.487Z,19.80
2018-04-12T17:54:13.496Z,45.70
2018-04-12T17:55:13.525Z,30.70
2018-04-12T17:56:13.523Z,23.70
2018-04-12T17:57:13.555Z,28.10
2018-04-12T17:58:13.503Z,21.50
2018-04-12T17:59:13.671Z,22.60
2018-04-12T18:00:13.502Z,23.90
2018-04-12T18:01:13.520Z,23.10
2018-04-12T18:02:13.670Z,14.40
2018-04-12T18:03:13.501Z,20.40
2018-04-12T18:04:13.509Z,18.90
2018-04-12T18:05:13.514Z,22.50
2018-04-12T18:06:13.514Z,33.00
2018-04-12T18:08:48.763Z,22.10
2018-04-12T18:09:52.723Z,11.80
2018-04-12T18:10:46.523Z,20.40
2018-04-12T18:11:54.087Z,10.20
2018-04-12T18:12:48.748Z,8.90
2018-04-12T18:14:46.024Z,4.40
2018-04-12T18:15:47.692Z,8.30
2018-04-12T18:16:46.589Z,16.00
2018-04-12T18:17:46.737Z,12.70
2018-04-12T18:18:47.203Z,7.90
2018-04-12T18:19:47.093Z,10.20
2018-04-12T18:20:46.050Z,6.10
2018-04-12T18:22:10.292Z,4.40
2018-04-12T18:22:49.089Z,3.20
2018-04-12T18:23:48.726Z,3.20
2018-04-12T18:24:49.670Z,3.30
2018-04-12T18:25:50.145Z,2.90
2018-04-12T18:26:46.892Z,2.90
2018-04-12T18:27:51.115Z,2.80
2018-04-12T18:28:46.082Z,3.40
2018-04-12T18:29:46.088Z,3.50
2018-04-12T18:30:49.090Z,3.50
2018-04-12T18:31:46.284Z,3.40
2018-04-12T18:32:53.676Z,3.10
2018-04-12T18:33:49.091Z,3.30
2018-04-12T18:34:47.834Z,3.70
2018-04-12T18:35:46.110Z,3.40
2018-04-12T18:37:21.288Z,3.40
2018-04-12T18:37:53.675Z,3.30
2018-04-12T18:38:47.779Z,3.30
2018-04-12T18:39:50.150Z,3.50
2018-04-12T18:40:47.414Z,4.70
2018-04-12T18:41:46.170Z,3.60
2018-04-12T18:42:53.818Z,4.30
2018-04-12T18:43:47.615Z,3.90
2018-04-12T18:44:46.152Z,10.10
2018-04-12T18:45:52.771Z,22.80
2018-04-12T18:46:56.796Z,106.70
2018-04-12T18:47:46.156Z,193.00
2018-04-12T18:49:00.857Z,25.60
2018-04-12T18:49:46.168Z,14.50
2018-04-12T18:50:46.157Z,34.10
2018-04-12T18:51:46.217Z,22.80
2018-04-12T18:52:46.310Z,9.70
2018-04-12T18:53:46.172Z,13.70
2018-04-12T18:54:46.173Z,40.20
2018-04-12T18:55:46.184Z,37.40
2018-04-12T18:56:46.197Z,29.80
2018-04-12T18:57:47.546Z,36.90
2018-04-12T18:58:46.189Z,39.10
2018-04-12T18:59:46.740Z,38.70
2018-04-12T19:00:46.213Z,28.10
2018-04-12T19:01:46.221Z,18.50
2018-04-12T19:02:46.373Z,3.10
2018-04-12T19:03:46.209Z,3.00
2018-04-12T19:04:46.189Z,2.80
2018-04-12T19:05:46.222Z,2.90
2018-04-12T19:06:46.202Z,2.60
2018-04-12T19:08:07.256Z,2.60
2018-04-12T19:08:47.086Z,2.30
2018-04-12T19:09:46.214Z,2.80
2018-04-12T19:10:46.211Z,2.20
2018-04-12T19:11:46.222Z,2.20
2018-04-12T19:12:56.795Z,1.90
2018-04-12T19:13:46.232Z,1.70
2018-04-12T19:14:46.224Z,2.00
2018-04-12T19:15:46.232Z,2.10
2018-04-12T19:16:46.239Z,1.60
2018-04-12T19:18:21.292Z,2.00
2018-04-12T19:18:46.239Z,1.70
2018-04-12T19:19:46.248Z,1.60
2018-04-12T19:20:46.244Z,1.60
2018-04-12T19:21:46.246Z,1.40
2018-04-12T19:22:49.785Z,1.60
2018-04-12T19:23:46.259Z,1.50
2018-04-12T19:24:46.265Z,1.70
2018-04-12T19:25:46.265Z,2.00
2018-04-12T19:26:46.266Z,1.60
2018-04-12T19:29:25.564Z,2.20
2018-04-12T19:30:17.889Z,1.90
2018-04-12T19:31:17.897Z,1.70
2018-04-12T19:32:17.902Z,1.80
2018-04-12T19:33:17.953Z,2.50
2018-04-12T19:34:17.894Z,1.60
2018-04-12T19:35:18.012Z,2.00
2018-04-12T19:36:18.841Z,2.50
2018-04-12T19:37:17.911Z,2.10